createdAt,value
2019-02-26T00:02:03.480Z,19.90
2019-02-26T00:05:05.847Z,13.33
2019-02-26T00:08:08.195Z,10.77
2019-02-26T00:11:10.799Z,13.47
2019-02-26T00:14:15.540Z,14.03
2019-02-26T00:17:15.709Z,13.33
2019-02-26T00:20:17.677Z,13.57
2019-02-26T00:23:21.494Z,15.50
2019-02-26T00:26:22.441Z,11.80
2019-02-26T00:29:25.423Z,14.03
2019-02-26T00:32:26.147Z,14.87
2019-02-26T00:35:28.411Z,13.97
2019-02-26T00:38:30.726Z,12.73
2019-02-26T00:41:33.575Z,10.27
2019-02-26T00:44:37.123Z,13.30
2019-02-26T00:47:38.791Z,12.23
2019-02-26T00:50:39.865Z,12.43
2019-02-26T00:53:42.015Z,14.23
2019-02-26T00:56:44.238Z,15.07
2019-02-26T00:59:48.089Z,13.73
2019-02-26T01:02:48.747Z,11.43
2019-02-26T01:05:50.991Z,12.00
2019-02-26T01:08:53.203Z,10.57
2019-02-26T01:11:55.452Z,11.53
2019-02-26T01:14:57.791Z,10.10
2019-02-26T01:18:01.438Z,12.07
2019-02-26T01:21:04.245Z,9.93
2019-02-26T01:24:06.385Z,11.70
2019-02-26T01:27:07.114Z,11.17
2019-02-26T01:30:10.951Z,8.77
2019-02-26T01:33:13.174Z,10.53
2019-02-26T01:36:16.218Z,9.40
2019-02-26T01:39:19.185Z,9.70
2019-02-26T01:42:22.991Z,11.07
2019-02-26T01:45:24.260Z,11.33
2019-02-26T01:48:24.546Z,9.70
2019-02-26T01:51:28.553Z,8.90
2019-02-26T01:54:30.627Z,11.17
2019-02-26T01:57:31.311Z,9.33
2019-02-26T02:00:33.572Z,10.83
2019-02-26T02:03:35.847Z,10.07
2019-02-26T02:06:39.260Z,10.30
2019-02-26T02:09:40.419Z,7.27
2019-02-26T02:12:42.670Z,12.27
2019-02-26T02:15:46.515Z,11.50
2019-02-26T02:18:48.871Z,12.37
2019-02-26T02:21:51.147Z,8.37
2019-02-26T02:24:53.405Z,11.40
2019-02-26T02:27:55.059Z,11.10
2019-02-26T02:30:56.196Z,9.67
2019-02-26T02:33:58.412Z,7.63
2019-02-26T02:37:00.652Z,14.20
2019-02-26T02:40:03.103Z,11.40
2019-02-26T02:43:07.968Z,9.00
2019-02-26T02:46:07.559Z,8.67
2019-02-26T02:49:12.485Z,10.67
2019-02-26T02:52:12.098Z,8.70
2019-02-26T02:55:17.188Z,7.67
2019-02-26T02:58:18.270Z,9.97
2019-02-26T03:01:20.424Z,9.53
2019-02-26T03:04:29.203Z,7.97
2019-02-26T03:07:29.830Z,7.50
2019-02-26T03:10:34.608Z,8.90
2019-02-26T03:13:34.283Z,9.57
2019-02-26T03:16:36.537Z,10.37
2019-02-26T03:19:41.607Z,9.17
2019-02-26T03:22:43.149Z,7.47
2019-02-26T03:25:44.551Z,7.07
2019-02-26T03:28:48.157Z,8.87
2019-02-26T03:31:54.646Z,8.27
2019-02-26T03:34:50.093Z,7.90
2019-02-26T03:37:54.885Z,7.07
2019-02-26T03:40:55.523Z,5.50
2019-02-26T03:43:58.538Z,7.23
2019-02-26T03:46:59.231Z,8.77
2019-02-26T03:50:01.500Z,6.23
2019-02-26T03:53:03.901Z,6.03
2019-02-26T03:56:08.197Z,8.13
2019-02-26T03:59:09.539Z,7.03
2019-02-26T04:02:11.901Z,7.00
2019-02-26T04:05:13.099Z,5.93
2019-02-26T04:08:16.631Z,7.00
2019-02-26T04:11:19.444Z,6.67
2019-02-26T04:14:20.680Z,7.70
2019-02-26T04:17:25.408Z,5.97
2019-02-26T04:20:26.895Z,7.57
2019-02-26T04:23:26.784Z,7.87
2019-02-26T04:27:42.122Z,5.50
2019-02-26T04:34:04.924Z,7.23
2019-02-26T04:39:18.773Z,5.07
2019-02-26T04:42:32.495Z,6.50
2019-02-26T04:47:46.657Z,7.37
2019-02-26T04:50:46.988Z,7.27
2019-02-26T04:53:51.788Z,9.13
2019-02-26T04:56:51.524Z,6.40
2019-02-26T04:59:55.641Z,9.77
2019-02-26T05:02:56.024Z,8.33
2019-02-26T05:06:00.155Z,7.60
2019-02-26T05:09:02.882Z,7.47
2019-02-26T05:12:02.763Z,8.27
2019-02-26T05:15:05.111Z,8.23
2019-02-26T05:18:07.343Z,8.10
2019-02-26T05:21:10.866Z,10.13
2019-02-26T05:24:13.060Z,5.83
2019-02-26T05:27:16.456Z,6.30
2019-02-26T05:30:21.087Z,7.50
2019-02-26T05:33:21.725Z,9.60
2019-02-26T05:36:21.894Z,8.90
2019-02-26T05:39:26.188Z,7.93
2019-02-26T05:42:26.410Z,8.00
2019-02-26T05:45:29.902Z,8.03
2019-02-26T05:48:30.955Z,8.67
2019-02-26T05:51:35.464Z,7.53
2019-02-26T05:54:35.482Z,7.23
2019-02-26T05:57:37.724Z,10.67
2019-02-26T06:00:39.957Z,7.40
2019-02-26T06:03:44.275Z,8.13
2019-02-26T06:06:44.489Z,6.60
2019-02-26T06:09:48.340Z,7.03
2019-02-26T06:12:48.945Z,7.97
2019-02-26T06:15:52.099Z,7.23
2019-02-26T06:18:54.465Z,5.93
2019-02-26T06:21:56.655Z,6.97
2019-02-26T06:25:00.271Z,8.80
2019-02-26T06:28:04.522Z,6.63
2019-02-26T06:31:02.539Z,8.17
2019-02-26T06:34:06.449Z,8.00
2019-02-26T06:37:16.379Z,8.53
2019-02-26T06:40:16.466Z,7.50
2019-02-26T06:43:18.763Z,9.70
2019-02-26T06:46:21.001Z,11.23
2019-02-26T06:49:24.602Z,7.87
2019-02-26T06:52:25.463Z,9.97
2019-02-26T06:55:27.675Z,9.70
2019-02-26T06:58:29.908Z,8.27
2019-02-26T07:01:32.789Z,7.10
2019-02-26T07:04:34.532Z,12.37
2019-02-26T07:07:37.086Z,19.93
2019-02-26T07:10:39.411Z,10.20
2019-02-26T07:15:12.146Z,12.20
2019-02-26T07:18:16.923Z,13.17
2019-02-26T07:21:15.785Z,15.23
2019-02-26T07:24:19.963Z,12.67
2019-02-26T07:27:20.315Z,11.60
2019-02-26T07:30:22.813Z,12.57
2019-02-26T07:33:27.386Z,6.67
2019-02-26T07:36:30.804Z,15.15
2019-02-26T07:39:33.235Z,9.33
2019-02-26T07:42:37.381Z,12.13
2019-02-26T07:45:37.711Z,10.37
2019-02-26T07:48:39.949Z,11.03
2019-02-26T07:51:43.029Z,7.70
2019-02-26T07:54:45.497Z,8.57
2019-02-26T07:57:48.955Z,12.30
2019-02-26T08:00:49.815Z,13.50
2019-02-26T08:03:53.225Z,12.37
2019-02-26T08:06:55.004Z,12.23
2019-02-26T08:09:55.784Z,11.03
2019-02-26T08:12:59.240Z,9.43
2019-02-26T08:16:02.322Z,12.80
2019-02-26T08:19:02.537Z,12.67
2019-02-26T08:22:04.742Z,13.13
2019-02-26T08:25:07.099Z,13.57
2019-02-26T08:28:09.332Z,9.40
2019-02-26T08:31:15.410Z,9.87
2019-02-26T08:34:15.744Z,11.53
2019-02-26T08:37:16.210Z,15.33
2019-02-26T08:40:18.491Z,8.73
2019-02-26T08:43:21.059Z,16.13
2019-02-26T08:46:23.399Z,12.23
2019-02-26T08:49:25.693Z,14.27
2019-02-26T08:52:29.399Z,13.57
2019-02-26T08:55:30.407Z,10.30
2019-02-26T08:58:32.780Z,10.03
2019-02-26T09:01:35.132Z,17.07
2019-02-26T09:04:38.383Z,11.03
2019-02-26T09:07:40.408Z,10.33
2019-02-26T09:10:43.732Z,15.27
2019-02-26T09:13:44.556Z,13.50
2019-02-26T09:16:49.815Z,12.00
2019-02-26T09:19:50.912Z,13.73
2019-02-26T09:22:54.326Z,24.80
2019-02-26T09:25:54.883Z,11.03
2019-02-26T09:28:57.184Z,11.10
2019-02-26T09:31:58.460Z,9.77
2019-02-26T09:35:02.318Z,12.40
2019-02-26T09:38:02.938Z,11.03
2019-02-26T09:41:05.160Z,11.50
2019-02-26T09:44:09.641Z,12.27
2019-02-26T09:47:09.693Z,13.30
2019-02-26T09:50:12.858Z,12.73
2019-02-26T09:53:14.271Z,16.30
2019-02-26T09:56:16.543Z,17.00
2019-02-26T09:59:18.795Z,10.40
2019-02-26T10:02:21.938Z,10.20
2019-02-26T10:05:23.357Z,10.80
2019-02-26T10:08:28.110Z,14.40
2019-02-26T10:11:28.092Z,10.73
2019-02-26T10:14:31.018Z,13.87
2019-02-26T10:17:34.760Z,11.47
2019-02-26T10:20:34.807Z,11.00
2019-02-26T10:23:37.107Z,11.73
2019-02-26T10:26:41.088Z,10.33
2019-02-26T10:29:44.858Z,12.07
2019-02-26T10:32:46.259Z,11.67
2019-02-26T10:35:47.982Z,15.20
2019-02-26T10:38:50.436Z,10.07
2019-02-26T10:41:50.948Z,9.67
2019-02-26T10:44:53.219Z,7.83
2019-02-26T10:47:56.694Z,7.47
2019-02-26T10:50:57.871Z,7.70
2019-02-26T10:54:02.592Z,8.70
2019-02-26T10:57:06.460Z,7.33
2019-02-26T11:00:10.350Z,7.73
2019-02-26T11:03:12.083Z,6.70
2019-02-26T11:06:15.905Z,9.33
2019-02-26T11:09:18.024Z,10.93
2019-02-26T11:12:16.921Z,12.37
2019-02-26T11:15:21.473Z,9.73
2019-02-26T11:18:23.519Z,10.47
2019-02-26T11:21:23.800Z,12.00
2019-02-26T11:24:28.226Z,8.97
2019-02-26T11:27:28.437Z,12.47
2019-02-26T11:30:32.256Z,11.37
2019-02-26T11:33:33.486Z,14.40
2019-02-26T11:36:38.039Z,11.73
2019-02-26T11:39:38.001Z,7.37
2019-02-26T11:42:42.173Z,9.00
2019-02-26T11:45:44.426Z,8.63
2019-02-26T11:48:45.677Z,10.20
2019-02-26T11:51:47.280Z,10.90
2019-02-26T11:54:49.590Z,11.23
2019-02-26T11:57:51.854Z,8.37
2019-02-26T12:00:57.154Z,9.43
2019-02-26T12:04:03.200Z,8.53
2019-02-26T12:07:03.640Z,10.37
2019-02-26T12:10:09.293Z,5.43
2019-02-26T12:13:06.303Z,5.77
2019-02-26T12:16:08.547Z,6.97
2019-02-26T12:19:10.915Z,6.23
2019-02-26T12:22:13.188Z,6.63
2019-02-26T12:25:15.627Z,6.40
2019-02-26T12:28:17.759Z,6.27
2019-02-26T12:31:20.055Z,5.50
2019-02-26T12:34:23.615Z,4.83
2019-02-26T12:37:24.628Z,6.97
2019-02-26T12:40:26.962Z,5.20
2019-02-26T12:43:30.191Z,5.17
2019-02-26T12:46:33.729Z,7.03
2019-02-26T12:49:36.543Z,5.00
2019-02-26T12:52:36.468Z,7.20
2019-02-26T12:55:42.088Z,5.83
2019-02-26T12:58:43.906Z,6.17
2019-02-26T13:01:46.234Z,7.17
2019-02-26T13:04:48.020Z,4.37
2019-02-26T13:07:48.727Z,6.63
2019-02-26T13:10:55.474Z,2.50
2019-02-26T13:13:53.718Z,3.03
2019-02-26T13:19:58.904Z,7.10
2019-02-26T13:23:16.452Z,3.20
2019-02-26T13:26:03.859Z,4.83
2019-02-26T13:29:04.980Z,8.37
2019-02-26T13:32:09.024Z,6.60
2019-02-26T13:35:09.688Z,5.30
2019-02-26T13:38:12.231Z,5.03
2019-02-26T13:41:28.715Z,5.70
2019-02-26T13:44:16.847Z,5.13
2019-02-26T13:47:19.187Z,5.93
2019-02-26T13:50:23.655Z,6.67
2019-02-26T13:53:25.986Z,5.80
2019-02-26T13:56:28.243Z,6.10
2019-02-26T13:59:30.584Z,4.77
2019-02-26T14:02:32.902Z,5.00
2019-02-26T14:05:38.166Z,5.43
2019-02-26T14:08:37.464Z,4.53
2019-02-26T14:11:39.803Z,6.10
2019-02-26T14:14:42.144Z,2.80
2019-02-26T14:17:44.453Z,2.37
2019-02-26T14:20:46.712Z,3.83
2019-02-26T14:23:49.028Z,7.70
2019-02-26T14:26:51.310Z,2.73
2019-02-26T14:29:53.567Z,4.67
2019-02-26T14:32:55.864Z,3.80
2019-02-26T14:35:58.199Z,3.60
2019-02-26T14:39:00.508Z,3.77
2019-02-26T14:42:02.799Z,4.30
2019-02-26T14:45:06.611Z,4.60
2019-02-26T14:48:08.921Z,3.37
2019-02-26T14:51:13.711Z,4.60
2019-02-26T14:54:15.993Z,3.13
2019-02-26T14:57:18.258Z,4.43
2019-02-26T15:00:22.865Z,4.80
2019-02-26T15:03:25.171Z,5.10
2019-02-26T15:06:27.440Z,4.93
2019-02-26T15:09:29.708Z,5.60
2019-02-26T15:12:31.948Z,6.63
2019-02-26T15:15:34.241Z,6.13
2019-02-26T15:18:36.581Z,6.67
2019-02-26T15:21:38.893Z,10.07
2019-02-26T15:24:41.192Z,9.17
2019-02-26T15:27:43.498Z,6.17
2019-02-26T15:30:45.788Z,8.80
2019-02-26T15:33:48.025Z,6.93
2019-02-26T15:36:50.299Z,8.27
2019-02-26T15:39:52.546Z,7.73
2019-02-26T15:42:56.449Z,8.50
2019-02-26T15:45:59.766Z,7.93
2019-02-26T15:49:00.621Z,9.00
2019-02-26T15:52:02.964Z,6.53
2019-02-26T15:55:06.847Z,7.77
2019-02-26T15:58:09.117Z,7.27
2019-02-26T16:01:12.854Z,6.03
2019-02-26T16:04:13.701Z,6.10
2019-02-26T16:07:15.932Z,5.60
2019-02-26T16:10:19.476Z,6.47
2019-02-26T16:13:20.633Z,6.40
2019-02-26T16:16:22.903Z,7.17
2019-02-26T16:19:25.175Z,6.83
2019-02-26T16:22:27.432Z,7.00
2019-02-26T16:25:29.659Z,6.57
2019-02-26T16:28:31.939Z,6.07
2019-02-26T16:31:34.207Z,4.40
2019-02-26T16:34:36.489Z,7.33
2019-02-26T16:37:41.449Z,6.27
2019-02-26T16:40:41.051Z,4.90
2019-02-26T16:43:43.313Z,5.00
2019-02-26T16:46:45.655Z,7.37
2019-02-26T16:49:47.907Z,4.87
2019-02-26T16:52:50.142Z,4.97
2019-02-26T16:55:52.471Z,5.90
2019-02-26T16:58:54.790Z,6.10
2019-02-26T17:01:57.111Z,8.97
2019-02-26T17:04:59.411Z,7.87
2019-02-26T17:08:03.084Z,9.17
2019-02-26T17:11:05.619Z,8.17
2019-02-26T17:14:07.959Z,6.70
2019-02-26T17:17:10.267Z,6.80
2019-02-26T17:20:12.585Z,8.00
2019-02-26T17:23:14.987Z,8.03
2019-02-26T17:26:17.289Z,7.43
2019-02-26T17:29:19.813Z,25.13
2019-02-26T17:32:21.883Z,27.60
2019-02-26T17:35:28.401Z,14.60
2019-02-26T17:38:26.664Z,10.67
2019-02-26T17:41:28.887Z,8.33
2019-02-26T17:44:31.156Z,7.40
2019-02-26T17:47:33.487Z,7.00
2019-02-26T17:50:35.752Z,8.13
2019-02-26T17:53:39.285Z,7.80
2019-02-26T17:56:40.295Z,7.47
2019-02-26T17:59:42.600Z,11.87
2019-02-26T18:02:44.881Z,8.73
2019-02-26T18:05:51.170Z,14.80
2019-02-26T18:08:49.698Z,37.73
2019-02-26T18:11:52.899Z,20.17
2019-02-26T18:14:56.163Z,8.13
2019-02-26T18:17:57.427Z,9.57
2019-02-26T18:20:59.642Z,7.67
2019-02-26T18:24:01.885Z,8.43
2019-02-26T18:27:04.133Z,9.67
2019-02-26T18:30:08.655Z,11.80
2019-02-26T18:33:10.874Z,9.63
2019-02-26T18:36:13.222Z,10.03
2019-02-26T18:39:15.402Z,7.73
2019-02-26T18:42:17.648Z,8.83
2019-02-26T18:45:21.782Z,10.87
2019-02-26T18:48:24.070Z,8.87
2019-02-26T18:51:26.339Z,12.13
2019-02-26T18:54:28.580Z,11.57
2019-02-26T18:57:30.813Z,11.17
2019-02-26T19:00:33.930Z,11.57
2019-02-26T19:03:36.194Z,9.03
2019-02-26T19:06:38.429Z,10.20
2019-02-26T19:09:42.687Z,10.07
2019-02-26T19:12:57.527Z,10.47
2019-02-26T19:15:59.783Z,9.20
2019-02-26T19:19:02.390Z,11.23
2019-02-26T19:22:04.679Z,11.37
2019-02-26T19:25:09.246Z,12.53
2019-02-26T19:28:09.899Z,12.10
2019-02-26T19:31:11.567Z,12.80
2019-02-26T19:34:13.785Z,11.90
2019-02-26T19:37:16.715Z,12.20
2019-02-26T19:40:19.728Z,13.33
2019-02-26T19:43:23.795Z,12.70
2019-02-26T19:46:24.619Z,12.23
2019-02-26T19:49:26.862Z,10.23
2019-02-26T19:52:29.113Z,12.30
2019-02-26T19:55:32.904Z,12.03
2019-02-26T19:58:35.127Z,13.63
2019-02-26T20:01:37.325Z,11.90
2019-02-26T20:04:39.603Z,15.73
2019-02-26T20:07:41.884Z,16.13
2019-02-26T20:10:47.721Z,9.27
2019-02-26T20:13:46.446Z,11.20
2019-02-26T20:16:48.694Z,8.37
2019-02-26T20:19:50.945Z,11.47
2019-02-26T20:22:53.207Z,9.57
2019-02-26T20:25:55.451Z,10.93
2019-02-26T20:28:57.671Z,8.57
2019-02-26T20:31:59.966Z,10.33
2019-02-26T20:35:02.235Z,9.63
2019-02-26T20:38:04.518Z,14.57
2019-02-26T20:41:06.792Z,11.87
2019-02-26T20:44:10.062Z,11.30
2019-02-26T20:47:11.263Z,15.90
2019-02-26T20:50:13.559Z,12.27
2019-02-26T20:53:15.793Z,12.47
2019-02-26T20:56:18.058Z,8.83
2019-02-26T21:00:25.268Z,10.60
2019-02-26T21:03:25.457Z,10.67
2019-02-26T21:06:27.544Z,11.93
2019-02-26T21:09:29.787Z,11.70
2019-02-26T21:12:32.059Z,9.47
2019-02-26T21:15:34.283Z,11.33
2019-02-26T21:18:36.597Z,11.87
2019-02-26T21:21:38.871Z,16.40
2019-02-26T21:24:41.112Z,10.60
2019-02-26T21:27:43.389Z,11.20
2019-02-26T21:30:46.371Z,10.43
2019-02-26T21:33:47.914Z,9.13
2019-02-26T21:36:50.134Z,10.80
2019-02-26T21:39:52.360Z,8.47
2019-02-26T21:42:54.611Z,11.57
2019-02-26T21:45:56.871Z,10.87
2019-02-26T21:48:59.138Z,10.00
2019-02-26T21:52:01.343Z,9.53
2019-02-26T21:55:03.707Z,9.60
2019-02-26T21:58:05.919Z,10.87
2019-02-26T22:01:11.441Z,9.40
2019-02-26T22:04:10.414Z,7.77
2019-02-26T22:07:12.695Z,7.87
2019-02-26T22:10:14.967Z,9.20
2019-02-26T22:13:17.711Z,9.47
2019-02-26T22:16:19.473Z,9.20
2019-02-26T22:19:21.704Z,7.73
2019-02-26T22:22:25.988Z,9.67
2019-02-26T22:25:26.247Z,7.77
2019-02-26T22:28:28.483Z,11.50
2019-02-26T22:31:30.719Z,9.53
2019-02-26T22:34:32.993Z,8.23
2019-02-26T22:37:35.283Z,8.87
2019-02-26T22:40:37.559Z,9.27
2019-02-26T22:43:39.815Z,7.77
2019-02-26T22:46:42.127Z,10.97
2019-02-26T22:49:44.389Z,10.57
2019-02-26T22:52:46.664Z,8.93
2019-02-26T22:55:49.930Z,5.63
2019-02-26T22:58:51.255Z,5.93
2019-02-26T23:01:53.910Z,7.30
2019-02-26T23:04:56.126Z,8.47
2019-02-26T23:07:58.375Z,6.20
2019-02-26T23:11:00.715Z,8.80
2019-02-26T23:14:05.022Z,6.90
2019-02-26T23:17:05.583Z,8.60
2019-02-26T23:20:09.901Z,7.33
2019-02-26T23:23:10.319Z,8.97
2019-02-26T23:26:12.559Z,7.90
2019-02-26T23:29:14.813Z,7.13
2019-02-26T23:32:17.119Z,7.83
2019-02-26T23:35:19.339Z,6.53
2019-02-26T23:38:21.647Z,8.37
2019-02-26T23:41:23.874Z,8.97
2019-02-26T23:44:26.135Z,6.57
2019-02-26T23:47:28.435Z,7.13
2019-02-26T23:50:30.662Z,6.33
2019-02-26T23:53:34.158Z,7.13
2019-02-26T23:56:35.683Z,8.40
2019-02-26T23:59:38.247Z,10.30
